sensor_id;sensor_type;location;lat;lon;timestamp;pressure;altitude;pressure_sealevel;temperature;humidity
77410;BME280;66481;51.332;22.804;2023-07-29T00:02:03;98771.22;;;15.64;100.00
77410;BME280;66481;51.332;22.804;2023-07-29T00:06:05;98768.75;;;15.54;100.00
77410;BME280;66481;51.332;22.804;2023-07-29T00:10:07;98774.09;;;15.54;100.00
77410;BME280;66481;51.332;22.804;2023-07-29T00:14:08;98770.94;;;15.51;100.00
77410;BME280;66481;51.332;22.804;2023-07-29T00:18:09;98776.75;;;15.38;100.00
77410;BME280;66481;51.332;22.804;2023-07-29T00:22:10;98777.44;;;15.40;100.00
77410;BME280;66481;51.332;22.804;2023-07-29T00:26:11;98768.25;;;15.34;100.00
77410;BME280;66481;51.332;22.804;2023-07-29T00:30:12;98784.75;;;15.38;100.00
77410;BME280;66481;51.332;22.804;2023-07-29T00:34:13;98777.44;;;15.32;100.00
77410;BME280;66481;51.332;22.804;2023-07-29T00:38:18;98785.25;;;15.25;100.00
77410;BME280;66481;51.332;22.804;2023-07-29T00:42:19;98795.75;;;15.27;100.00
77410;BME280;66481;51.332;22.804;2023-07-29T00:46:20;98790.09;;;15.21;100.00
77410;BME280;66481;51.332;22.804;2023-07-29T00:50:22;98785.91;;;15.19;100.00
77410;BME280;66481;51.332;22.804;2023-07-29T00:54:23;98794.25;;;15.16;100.00
77410;BME280;66481;51.332;22.804;2023-07-29T00:58:24;98792.88;;;15.03;100.00
77410;BME280;66481;51.332;22.804;2023-07-29T01:02:26;98792.56;;;14.98;100.00
77410;BME280;66481;51.332;22.804;2023-07-29T01:06:30;98799.72;;;14.98;100.00
77410;BME280;66481;51.332;22.804;2023-07-29T01:10:46;98808.22;;;15.01;100.00
77410;BME280;66481;51.332;22.804;2023-07-29T01:15:08;98808.38;;;15.00;100.00
77410;BME280;66481;51.332;22.804;2023-07-29T01:23:44;98800.34;;;14.75;100.00
77410;BME280;66481;51.332;22.804;2023-07-29T01:27:48;98808.53;;;14.90;100.00
77410;BME280;66481;51.332;22.804;2023-07-29T01:31:54;98816.19;;;14.85;100.00
77410;BME280;66481;51.332;22.804;2023-07-29T01:36:03;98815.88;;;14.88;100.00
77410;BME280;66481;51.332;22.804;2023-07-29T01:40:08;98810.19;;;14.91;100.00
77410;BME280;66481;51.332;22.804;2023-07-29T01:44:09;98809.84;;;14.86;100.00
77410;BME280;66481;51.332;22.804;2023-07-29T01:48:11;98809.34;;;14.82;100.00
77410;BME280;66481;51.332;22.804;2023-07-29T01:52:11;98817.13;;;14.76;100.00
77410;BME280;66481;51.332;22.804;2023-07-29T01:56:12;98814.13;;;14.62;100.00
77410;BME280;66481;51.332;22.804;2023-07-29T02:00:13;98821.25;;;14.62;100.00
77410;BME280;66481;51.332;22.804;2023-07-29T02:04:14;98826.94;;;14.67;100.00
77410;BME280;66481;51.332;22.804;2023-07-29T02:08:15;98834.56;;;14.62;100.00
77410;BME280;66481;51.332;22.804;2023-07-29T02:12:16;98833.28;;;14.66;100.00
77410;BME280;66481;51.332;22.804;2023-07-29T02:16:17;98841.19;;;14.58;100.00
77410;BME280;66481;51.332;22.804;2023-07-29T02:20:18;98848.06;;;14.60;100.00
77410;BME280;66481;51.332;22.804;2023-07-29T02:24:19;98844.56;;;14.60;100.00
77410;BME280;66481;51.332;22.804;2023-07-29T02:28:20;98837.13;;;14.72;100.00
77410;BME280;66481;51.332;22.804;2023-07-29T02:32:21;98826.69;;;14.95;100.00
77410;BME280;66481;51.332;22.804;2023-07-29T02:36:22;98840.22;;;15.10;100.00
77410;BME280;66481;51.332;22.804;2023-07-29T02:40:23;98867.22;;;15.23;100.00
77410;BME280;66481;51.332;22.804;2023-07-29T02:44:27;98864.38;;;15.33;100.00
77410;BME280;66481;51.332;22.804;2023-07-29T02:48:28;98874.59;;;15.46;100.00
77410;BME280;66481;51.332;22.804;2023-07-29T02:52:28;98881.56;;;15.55;100.00
77410;BME280;66481;51.332;22.804;2023-07-29T02:56:29;98871.72;;;15.55;100.00
77410;BME280;66481;51.332;22.804;2023-07-29T03:00:31;98890.09;;;15.67;100.00
77410;BME280;66481;51.332;22.804;2023-07-29T03:04:33;98887.75;;;15.72;100.00
77410;BME280;66481;51.332;22.804;2023-07-29T03:08:35;98891.94;;;15.83;100.00
77410;BME280;66481;51.332;22.804;2023-07-29T03:12:36;98900.78;;;15.91;100.00
77410;BME280;66481;51.332;22.804;2023-07-29T03:16:37;98905.28;;;15.99;100.00
77410;BME280;66481;51.332;22.804;2023-07-29T03:20:38;98896.44;;;15.98;100.00
77410;BME280;66481;51.332;22.804;2023-07-29T03:24:38;98893.94;;;16.05;100.00
77410;BME280;66481;51.332;22.804;2023-07-29T03:28:42;98896.44;;;16.07;100.00
77410;BME280;66481;51.332;22.804;2023-07-29T03:32:44;98906.28;;;16.14;100.00
77410;BME280;66481;51.332;22.804;2023-07-29T03:36:48;98906.25;;;16.23;100.00
77410;BME280;66481;51.332;22.804;2023-07-29T03:40:51;98915.06;;;16.31;100.00
77410;BME280;66481;51.332;22.804;2023-07-29T03:44:52;98907.22;;;16.30;100.00
77410;BME280;66481;51.332;22.804;2023-07-29T03:48:53;98906.56;;;16.36;100.00
77410;BME280;66481;51.332;22.804;2023-07-29T03:52:55;98905.56;;;16.37;100.00
77410;BME280;66481;51.332;22.804;2023-07-29T03:56:55;98915.22;;;16.46;100.00
77410;BME280;66481;51.332;22.804;2023-07-29T04:00:56;98919.38;;;16.49;100.00
77410;BME280;66481;51.332;22.804;2023-07-29T04:04:57;98913.53;;;16.45;100.00
77410;BME280;66481;51.332;22.804;2023-07-29T04:08:58;98919.53;;;16.55;100.00
77410;BME280;66481;51.332;22.804;2023-07-29T04:12:59;98924.34;;;16.68;100.00
77410;BME280;66481;51.332;22.804;2023-07-29T04:17:00;98915.47;;;16.68;100.00
77410;BME280;66481;51.332;22.804;2023-07-29T04:21:01;98916.47;;;16.75;100.00
77410;BME280;66481;51.332;22.804;2023-07-29T04:25:02;98925.81;;;16.79;100.00
77410;BME280;66481;51.332;22.804;2023-07-29T04:29:05;98918.63;;;16.80;100.00
77410;BME280;66481;51.332;22.804;2023-07-29T04:33:06;98915.28;;;16.78;100.00
77410;BME280;66481;51.332;22.804;2023-07-29T04:37:07;98929.47;;;16.78;100.00
77410;BME280;66481;51.332;22.804;2023-07-29T04:41:08;98916.31;;;16.77;100.00
77410;BME280;66481;51.332;22.804;2023-07-29T04:45:09;98917.13;;;16.77;100.00
77410;BME280;66481;51.332;22.804;2023-07-29T04:49:10;98928.31;;;16.89;100.00
77410;BME280;66481;51.332;22.804;2023-07-29T04:53:12;98928.88;;;17.07;100.00
77410;BME280;66481;51.332;22.804;2023-07-29T04:57:12;98923.44;;;17.32;100.00
77410;BME280;66481;51.332;22.804;2023-07-29T05:01:13;98921.88;;;17.61;100.00
77410;BME280;66481;51.332;22.804;2023-07-29T05:05:14;98923.88;;;17.90;100.00
77410;BME280;66481;51.332;22.804;2023-07-29T05:09:16;98932.94;;;18.04;100.00
77410;BME280;66481;51.332;22.804;2023-07-29T05:13:18;98926.78;;;18.03;100.00
77410;BME280;66481;51.332;22.804;2023-07-29T05:17:19;98926.88;;;18.10;100.00
77410;BME280;66481;51.332;22.804;2023-07-29T05:21:20;98928.34;;;18.13;100.00
77410;BME280;66481;51.332;22.804;2023-07-29T05:25:21;98932.66;;;18.37;100.00
77410;BME280;66481;51.332;22.804;2023-07-29T05:29:22;98927.75;;;18.70;99.32
77410;BME280;66481;51.332;22.804;2023-07-29T05:33:23;98920.06;;;19.12;97.04
77410;BME280;66481;51.332;22.804;2023-07-29T05:37:24;98918.34;;;19.41;95.27
77410;BME280;66481;51.332;22.804;2023-07-29T05:41:25;98907.59;;;19.77;94.44
77410;BME280;66481;51.332;22.804;2023-07-29T05:45:28;98909.28;;;20.06;91.83
77410;BME280;66481;51.332;22.804;2023-07-29T05:49:31;98902.25;;;20.62;90.18
77410;BME280;66481;51.332;22.804;2023-07-29T05:53:33;98900.03;;;21.20;85.86
77410;BME280;66481;51.332;22.804;2023-07-29T05:57:34;98887.53;;;21.74;82.66
77410;BME280;66481;51.332;22.804;2023-07-29T06:01:36;98909.78;;;25.10;77.21
77410;BME280;66481;51.332;22.804;2023-07-29T06:05:37;98894.75;;;25.86;68.07
77410;BME280;66481;51.332;22.804;2023-07-29T06:09:39;98894.34;;;24.36;69.83
77410;BME280;66481;51.332;22.804;2023-07-29T06:13:40;98946.13;;;22.86;74.95
77410;BME280;66481;51.332;22.804;2023-07-29T06:17:41;98962.97;;;22.61;74.50
77410;BME280;66481;51.332;22.804;2023-07-29T06:21:42;98959.91;;;22.38;76.78
77410;BME280;66481;51.332;22.804;2023-07-29T06:25:43;98974.09;;;25.14;69.96
77410;BME280;66481;51.332;22.804;2023-07-29T06:29:44;98954.22;;;28.04;62.01
77410;BME280;66481;51.332;22.804;2023-07-29T06:33:45;98951.25;;;29.89;54.83
77410;BME280;66481;51.332;22.804;2023-07-29T06:37:46;98970.41;;;28.28;54.06
77410;BME280;66481;51.332;22.804;2023-07-29T06:41:47;98988.44;;;25.82;61.87
77410;BME280;66481;51.332;22.804;2023-07-29T06:45:48;98982.59;;;27.51;59.88
77410;BME280;66481;51.332;22.804;2023-07-29T06:49:49;98989.41;;;25.21;61.45
77410;BME280;66481;51.332;22.804;2023-07-29T06:53:50;99001.03;;;23.70;66.43
77410;BME280;66481;51.332;22.804;2023-07-29T06:57:51;98997.38;;;24.28;66.20
77410;BME280;66481;51.332;22.804;2023-07-29T07:01:52;98987.53;;;25.21;62.03
77410;BME280;66481;51.332;22.804;2023-07-29T07:05:54;98999.78;;;24.11;64.59
77410;BME280;66481;51.332;22.804;2023-07-29T07:09:56;98998.00;;;22.14;71.19
77410;BME280;66481;51.332;22.804;2023-07-29T07:13:57;98992.81;;;26.49;62.27
77410;BME280;66481;51.332;22.804;2023-07-29T07:17:59;98980.22;;;27.02;57.90
77410;BME280;66481;51.332;22.804;2023-07-29T07:22:00;98987.88;;;26.34;60.55
77410;BME280;66481;51.332;22.804;2023-07-29T07:26:02;98983.38;;;27.11;60.87
77410;BME280;66481;51.332;22.804;2023-07-29T07:30:05;98979.69;;;28.32;56.06
77410;BME280;66481;51.332;22.804;2023-07-29T07:34:07;98991.19;;;27.88;55.80
77410;BME280;66481;51.332;22.804;2023-07-29T07:38:09;98977.59;;;27.60;55.81
77410;BME280;66481;51.332;22.804;2023-07-29T07:42:10;98994.19;;;26.70;60.24
77410;BME280;66481;51.332;22.804;2023-07-29T07:46:11;98988.94;;;28.14;56.09
77410;BME280;66481;51.332;22.804;2023-07-29T07:50:12;98985.78;;;29.12;53.22
77410;BME280;66481;51.332;22.804;2023-07-29T07:54:15;98988.41;;;29.95;51.53
77410;BME280;66481;51.332;22.804;2023-07-29T07:58:16;98981.09;;;31.14;49.20
77410;BME280;66481;51.332;22.804;2023-07-29T08:02:18;98979.41;;;31.07;46.44
77410;BME280;66481;51.332;22.804;2023-07-29T08:06:19;98988.53;;;31.23;49.50
77410;BME280;66481;51.332;22.804;2023-07-29T08:10:21;98983.56;;;32.45;46.90
77410;BME280;66481;51.332;22.804;2023-07-29T08:14:22;98984.88;;;29.46;50.83
77410;BME280;66481;51.332;22.804;2023-07-29T08:18:23;98990.69;;;27.63;54.09
77410;BME280;66481;51.332;22.804;2023-07-29T08:22:24;98988.66;;;29.22;52.35
77410;BME280;66481;51.332;22.804;2023-07-29T08:26:34;98977.47;;;31.71;46.70
77410;BME280;66481;51.332;22.804;2023-07-29T08:30:35;98985.72;;;32.02;45.49
77410;BME280;66481;51.332;22.804;2023-07-29T08:34:36;98977.09;;;29.81;49.46
77410;BME280;66481;51.332;22.804;2023-07-29T08:38:37;98980.50;;;31.01;47.24
77410;BME280;66481;51.332;22.804;2023-07-29T08:42:39;98976.72;;;32.27;45.62
77410;BME280;66481;51.332;22.804;2023-07-29T08:46:41;98978.78;;;29.38;51.16
77410;BME280;66481;51.332;22.804;2023-07-29T08:50:43;98985.84;;;28.95;52.61
77410;BME280;66481;51.332;22.804;2023-07-29T08:54:46;98977.59;;;31.28;45.32
77410;BME280;66481;51.332;22.804;2023-07-29T08:58:48;98977.53;;;29.73;48.46
77410;BME280;66481;51.332;22.804;2023-07-29T09:02:50;98980.19;;;31.61;46.69
77410;BME280;66481;51.332;22.804;2023-07-29T09:06:56;98978.91;;;32.71;43.75
77410;BME280;66481;51.332;22.804;2023-07-29T09:10:57;98969.88;;;32.40;44.93
77410;BME280;66481;51.332;22.804;2023-07-29T09:14:59;98979.91;;;30.24;45.18
77410;BME280;66481;51.332;22.804;2023-07-29T09:19:02;98963.63;;;31.25;47.05
77410;BME280;66481;51.332;22.804;2023-07-29T09:23:07;98961.72;;;31.20;45.03
77410;BME280;66481;51.332;22.804;2023-07-29T09:27:10;98963.91;;;31.28;44.43
77410;BME280;66481;51.332;22.804;2023-07-29T09:31:25;98965.44;;;31.72;43.23
77410;BME280;66481;51.332;22.804;2023-07-29T09:35:29;98975.91;;;32.42;43.21
77410;BME280;66481;51.332;22.804;2023-07-29T09:39:32;98963.31;;;32.10;43.08
77410;BME280;66481;51.332;22.804;2023-07-29T09:43:34;98971.47;;;31.79;44.70
77410;BME280;66481;51.332;22.804;2023-07-29T09:47:36;98963.50;;;31.67;44.84
77410;BME280;66481;51.332;22.804;2023-07-29T09:51:38;98961.94;;;30.28;45.54
77410;BME280;66481;51.332;22.804;2023-07-29T09:55:39;98969.31;;;28.12;49.71
77410;BME280;66481;51.332;22.804;2023-07-29T09:59:59;98950.91;;;28.70;48.23
77410;BME280;66481;51.332;22.804;2023-07-29T10:04:00;98957.34;;;30.34;49.38
77410;BME280;66481;51.332;22.804;2023-07-29T10:08:03;98952.09;;;30.60;46.27
77410;BME280;66481;51.332;22.804;2023-07-29T10:12:06;98960.97;;;30.82;44.12
77410;BME280;66481;51.332;22.804;2023-07-29T10:16:08;98955.84;;;30.48;45.06
77410;BME280;66481;51.332;22.804;2023-07-29T10:20:10;98968.94;;;29.37;45.96
77410;BME280;66481;51.332;22.804;2023-07-29T10:24:15;98963.56;;;30.29;45.19
77410;BME280;66481;51.332;22.804;2023-07-29T10:28:20;98960.06;;;29.74;46.56
77410;BME280;66481;51.332;22.804;2023-07-29T10:32:26;98971.06;;;28.69;45.43
77410;BME280;66481;51.332;22.804;2023-07-29T10:36:28;98977.81;;;28.16;48.50
77410;BME280;66481;51.332;22.804;2023-07-29T10:40:52;98960.88;;;28.13;50.35
77410;BME280;66481;51.332;22.804;2023-07-29T10:44:57;98957.59;;;27.37;51.15
77410;BME280;66481;51.332;22.804;2023-07-29T10:48:58;98963.56;;;27.51;50.94
77410;BME280;66481;51.332;22.804;2023-07-29T10:53:04;98954.31;;;27.11;50.96
77410;BME280;66481;51.332;22.804;2023-07-29T10:57:05;98970.34;;;26.84;50.55
77410;BME280;66481;51.332;22.804;2023-07-29T11:01:13;98957.66;;;27.01;51.42
77410;BME280;66481;51.332;22.804;2023-07-29T11:05:18;98963.47;;;26.70;52.05
77410;BME280;66481;51.332;22.804;2023-07-29T11:09:39;98967.41;;;27.38;51.19
77410;BME280;66481;51.332;22.804;2023-07-29T11:13:40;98960.00;;;28.59;51.03
77410;BME280;66481;51.332;22.804;2023-07-29T11:17:44;98956.34;;;28.70;47.52
77410;BME280;66481;51.332;22.804;2023-07-29T11:21:47;98951.75;;;28.54;46.63
77410;BME280;66481;51.332;22.804;2023-07-29T11:25:49;98953.56;;;28.14;48.66
77410;BME280;66481;51.332;22.804;2023-07-29T11:29:56;98953.00;;;27.83;50.13
77410;BME280;66481;51.332;22.804;2023-07-29T11:33:59;98950.34;;;27.71;50.02
77410;BME280;66481;51.332;22.804;2023-07-29T11:38:01;98943.84;;;27.72;51.04
77410;BME280;66481;51.332;22.804;2023-07-29T11:42:02;98942.13;;;28.85;48.34
77410;BME280;66481;51.332;22.804;2023-07-29T11:46:04;98930.13;;;28.64;47.63
77410;BME280;66481;51.332;22.804;2023-07-29T11:50:08;98929.28;;;28.46;49.09
77410;BME280;66481;51.332;22.804;2023-07-29T11:54:15;98916.59;;;28.52;48.34
77410;BME280;66481;51.332;22.804;2023-07-29T11:58:17;98928.16;;;28.42;48.14
77410;BME280;66481;51.332;22.804;2023-07-29T12:02:20;98922.69;;;29.20;46.98
77410;BME280;66481;51.332;22.804;2023-07-29T12:06:22;98921.81;;;28.20;48.50
77410;BME280;66481;51.332;22.804;2023-07-29T12:10:25;98919.81;;;28.66;49.13
77410;BME280;66481;51.332;22.804;2023-07-29T12:14:30;98921.66;;;28.43;48.66
77410;BME280;66481;51.332;22.804;2023-07-29T12:18:32;98912.78;;;28.53;47.68
77410;BME280;66481;51.332;22.804;2023-07-29T12:22:34;98919.19;;;28.25;49.13
77410;BME280;66481;51.332;22.804;2023-07-29T12:26:38;98923.25;;;28.05;49.86
77410;BME280;66481;51.332;22.804;2023-07-29T12:30:42;98916.63;;;28.18;48.29
77410;BME280;66481;51.332;22.804;2023-07-29T12:34:44;98906.72;;;27.32;49.97
77410;BME280;66481;51.332;22.804;2023-07-29T12:38:46;98912.69;;;27.63;51.92
77410;BME280;66481;51.332;22.804;2023-07-29T12:42:49;98897.50;;;27.96;49.16
77410;BME280;66481;51.332;22.804;2023-07-29T12:46:50;98899.03;;;27.17;50.43
77410;BME280;66481;51.332;22.804;2023-07-29T12:50:52;98903.44;;;27.18;50.75
77410;BME280;66481;51.332;22.804;2023-07-29T12:54:53;98898.66;;;27.37;50.13
77410;BME280;66481;51.332;22.804;2023-07-29T12:58:55;98902.91;;;27.62;51.63
77410;BME280;66481;51.332;22.804;2023-07-29T13:02:56;98902.81;;;27.57;50.14
77410;BME280;66481;51.332;22.804;2023-07-29T13:06:58;98895.59;;;27.80;50.38
77410;BME280;66481;51.332;22.804;2023-07-29T13:11:00;98889.34;;;27.21;51.32
77410;BME280;66481;51.332;22.804;2023-07-29T13:15:02;98891.25;;;27.21;50.65
77410;BME280;66481;51.332;22.804;2023-07-29T13:19:03;98881.44;;;27.49;52.65
77410;BME280;66481;51.332;22.804;2023-07-29T13:23:04;98882.66;;;27.12;51.07
77410;BME280;66481;51.332;22.804;2023-07-29T13:27:05;98876.56;;;27.34;52.36
77410;BME280;66481;51.332;22.804;2023-07-29T13:31:06;98873.13;;;27.27;51.25
77410;BME280;66481;51.332;22.804;2023-07-29T13:35:07;98862.63;;;27.30;49.83
77410;BME280;66481;51.332;22.804;2023-07-29T13:39:08;98860.63;;;27.26;51.75
77410;BME280;66481;51.332;22.804;2023-07-29T13:43:09;98869.44;;;27.45;51.30
77410;BME280;66481;51.332;22.804;2023-07-29T13:47:11;98867.06;;;27.48;50.78
77410;BME280;66481;51.332;22.804;2023-07-29T13:51:12;98866.16;;;27.43;51.12
77410;BME280;66481;51.332;22.804;2023-07-29T13:55:13;98856.53;;;27.11;51.22
77410;BME280;66481;51.332;22.804;2023-07-29T13:59:14;98850.69;;;27.02;51.22
77410;BME280;66481;51.332;22.804;2023-07-29T14:03:15;98847.09;;;26.73;52.52
77410;BME280;66481;51.332;22.804;2023-07-29T14:07:16;98840.41;;;27.05;52.61
77410;BME280;66481;51.332;22.804;2023-07-29T14:11:17;98845.16;;;27.26;52.57
77410;BME280;66481;51.332;22.804;2023-07-29T14:15:18;98842.66;;;27.36;52.09
77410;BME280;66481;51.332;22.804;2023-07-29T14:19:19;98839.22;;;27.41;52.54
77410;BME280;66481;51.332;22.804;2023-07-29T14:23:20;98824.69;;;27.35;51.09
77410;BME280;66481;51.332;22.804;2023-07-29T14:27:20;98831.53;;;27.09;52.23
77410;BME280;66481;51.332;22.804;2023-07-29T14:31:22;98815.38;;;27.02;51.46
77410;BME280;66481;51.332;22.804;2023-07-29T14:35:23;98808.94;;;26.92;52.32
77410;BME280;66481;51.332;22.804;2023-07-29T14:39:24;98814.97;;;26.82;54.45
77410;BME280;66481;51.332;22.804;2023-07-29T14:43:25;98810.84;;;26.91;51.68
77410;BME280;66481;51.332;22.804;2023-07-29T14:47:26;98809.22;;;26.78;53.91
77410;BME280;66481;51.332;22.804;2023-07-29T14:51:27;98805.78;;;26.83;53.24
77410;BME280;66481;51.332;22.804;2023-07-29T14:55:28;98796.34;;;26.86;53.81
77410;BME280;66481;51.332;22.804;2023-07-29T14:59:30;98799.41;;;26.89;52.95
77410;BME280;66481;51.332;22.804;2023-07-29T15:03:31;98794.97;;;26.59;53.25
77410;BME280;66481;51.332;22.804;2023-07-29T15:07:33;98797.06;;;26.81;54.09
77410;BME280;66481;51.332;22.804;2023-07-29T15:11:36;98799.25;;;26.43;54.33
77410;BME280;66481;51.332;22.804;2023-07-29T15:15:40;98803.06;;;26.31;55.52
77410;BME280;66481;51.332;22.804;2023-07-29T15:19:41;98804.28;;;25.99;55.92
77410;BME280;66481;51.332;22.804;2023-07-29T15:23:43;98805.09;;;26.23;57.44
77410;BME280;66481;51.332;22.804;2023-07-29T15:27:44;98803.41;;;26.34;56.01
77410;BME280;66481;51.332;22.804;2023-07-29T15:31:46;98815.06;;;26.35;55.04
77410;BME280;66481;51.332;22.804;2023-07-29T15:35:47;98798.81;;;26.35;54.48
77410;BME280;66481;51.332;22.804;2023-07-29T15:39:49;98806.13;;;26.34;56.52
77410;BME280;66481;51.332;22.804;2023-07-29T15:43:50;98806.25;;;26.27;54.52
77410;BME280;66481;51.332;22.804;2023-07-29T15:47:54;98784.31;;;26.17;55.57
77410;BME280;66481;51.332;22.804;2023-07-29T15:51:55;98786.34;;;26.22;55.29
77410;BME280;66481;51.332;22.804;2023-07-29T15:55:56;98779.38;;;26.02;55.47
77410;BME280;66481;51.332;22.804;2023-07-29T15:59:56;98781.38;;;25.95;57.42
77410;BME280;66481;51.332;22.804;2023-07-29T16:03:58;98775.47;;;25.75;56.63
77410;BME280;66481;51.332;22.804;2023-07-29T16:07:59;98771.25;;;25.67;58.14
77410;BME280;66481;51.332;22.804;2023-07-29T16:12:00;98773.56;;;25.51;57.45
77410;BME280;66481;51.332;22.804;2023-07-29T16:16:02;98764.63;;;25.51;57.58
77410;BME280;66481;51.332;22.804;2023-07-29T16:20:06;98774.13;;;25.42;58.76
77410;BME280;66481;51.332;22.804;2023-07-29T16:24:07;98761.31;;;25.37;57.24
77410;BME280;66481;51.332;22.804;2023-07-29T16:28:08;98765.41;;;25.28;57.47
77410;BME280;66481;51.332;22.804;2023-07-29T16:32:09;98765.66;;;25.26;56.71
77410;BME280;66481;51.332;22.804;2023-07-29T16:36:10;98775.84;;;25.24;57.36
77410;BME280;66481;51.332;22.804;2023-07-29T16:40:11;98772.84;;;25.32;56.67
77410;BME280;66481;51.332;22.804;2023-07-29T16:44:12;98777.25;;;25.15;56.63
77410;BME280;66481;51.332;22.804;2023-07-29T16:48:13;98767.09;;;24.99;57.05
77410;BME280;66481;51.332;22.804;2023-07-29T16:52:14;98771.78;;;25.03;58.21
77410;BME280;66481;51.332;22.804;2023-07-29T16:56:15;98773.19;;;24.94;58.29
77410;BME280;66481;51.332;22.804;2023-07-29T17:00:16;98782.16;;;24.76;60.61
77410;BME280;66481;51.332;22.804;2023-07-29T17:04:17;98778.66;;;24.57;61.24
77410;BME280;66481;51.332;22.804;2023-07-29T17:08:18;98784.38;;;24.49;63.08
77410;BME280;66481;51.332;22.804;2023-07-29T17:12:19;98781.56;;;24.18;63.85
77410;BME280;66481;51.332;22.804;2023-07-29T17:16:20;98780.34;;;23.96;64.01
77410;BME280;66481;51.332;22.804;2023-07-29T17:20:21;98790.06;;;23.78;64.83
77410;BME280;66481;51.332;22.804;2023-07-29T17:24:22;98788.22;;;23.72;66.18
77410;BME280;66481;51.332;22.804;2023-07-29T17:28:23;98780.25;;;23.59;67.96
77410;BME280;66481;51.332;22.804;2023-07-29T17:32:25;98771.41;;;23.20;68.34
77410;BME280;66481;51.332;22.804;2023-07-29T17:36:26;98780.19;;;23.15;67.62
77410;BME280;66481;51.332;22.804;2023-07-29T17:40:27;98770.63;;;23.13;67.43
77410;BME280;66481;51.332;22.804;2023-07-29T17:44:28;98760.75;;;23.00;67.66
77410;BME280;66481;51.332;22.804;2023-07-29T17:48:30;98761.63;;;22.87;68.36
77410;BME280;66481;51.332;22.804;2023-07-29T17:52:31;98765.00;;;22.82;68.79
77410;BME280;66481;51.332;22.804;2023-07-29T17:56:33;98772.47;;;22.73;69.35
77410;BME280;66481;51.332;22.804;2023-07-29T18:00:38;98767.19;;;22.60;69.85
77410;BME280;66481;51.332;22.804;2023-07-29T18:04:39;98777.38;;;22.51;70.38
77410;BME280;66481;51.332;22.804;2023-07-29T18:08:41;98773.03;;;22.44;70.77
77410;BME280;66481;51.332;22.804;2023-07-29T18:12:43;98787.19;;;22.39;70.99
77410;BME280;66481;51.332;22.804;2023-07-29T18:16:46;98783.03;;;22.23;72.11
77410;BME280;66481;51.332;22.804;2023-07-29T18:20:50;98780.13;;;22.18;71.66
77410;BME280;66481;51.332;22.804;2023-07-29T18:24:51;98775.41;;;22.13;72.37
77410;BME280;66481;51.332;22.804;2023-07-29T18:28:53;98782.69;;;22.06;73.00
77410;BME280;66481;51.332;22.804;2023-07-29T18:32:54;98775.44;;;21.93;74.04
77410;BME280;66481;51.332;22.804;2023-07-29T18:36:56;98769.66;;;21.83;74.68
77410;BME280;66481;51.332;22.804;2023-07-29T18:40:57;98784.16;;;21.75;75.02
77410;BME280;66481;51.332;22.804;2023-07-29T18:44:58;98791.84;;;21.65;75.55
77410;BME280;66481;51.332;22.804;2023-07-29T18:48:59;98797.22;;;21.52;76.59
77410;BME280;66481;51.332;22.804;2023-07-29T18:53:01;98784.75;;;21.37;76.82
77410;BME280;66481;51.332;22.804;2023-07-29T18:57:03;98790.97;;;21.38;77.06
77410;BME280;66481;51.332;22.804;2023-07-29T19:01:04;98788.06;;;21.33;77.63
77410;BME280;66481;51.332;22.804;2023-07-29T19:05:06;98785.38;;;21.33;78.15
77410;BME280;66481;51.332;22.804;2023-07-29T19:09:10;98781.25;;;21.37;77.36
77410;BME280;66481;51.332;22.804;2023-07-29T19:13:13;98779.59;;;21.42;77.52
77410;BME280;66481;51.332;22.804;2023-07-29T19:17:14;98770.66;;;21.42;77.37
77410;BME280;66481;51.332;22.804;2023-07-29T19:21:16;98783.50;;;21.40;78.30
77410;BME280;66481;51.332;22.804;2023-07-29T19:25:19;98781.84;;;21.26;79.42
77410;BME280;66481;51.332;22.804;2023-07-29T19:29:20;98772.94;;;21.18;79.57
77410;BME280;66481;51.332;22.804;2023-07-29T19:33:23;98785.13;;;21.14;80.04
77410;BME280;66481;51.332;22.804;2023-07-29T19:37:25;98772.09;;;21.04;80.90
77410;BME280;66481;51.332;22.804;2023-07-29T19:41:27;98765.25;;;21.02;80.76
77410;BME280;66481;51.332;22.804;2023-07-29T19:45:32;98754.28;;;21.03;80.99
77410;BME280;66481;51.332;22.804;2023-07-29T19:49:34;98754.69;;;21.00;81.46
77410;BME280;66481;51.332;22.804;2023-07-29T19:53:35;98768.50;;;20.77;83.27
77410;BME280;66481;51.332;22.804;2023-07-29T19:57:37;98768.19;;;20.59;84.38
77410;BME280;66481;51.332;22.804;2023-07-29T20:01:39;98771.94;;;20.58;84.91
77410;BME280;66481;51.332;22.804;2023-07-29T20:05:43;98770.03;;;20.52;85.53
77410;BME280;66481;51.332;22.804;2023-07-29T20:09:46;98782.31;;;20.61;85.45
77410;BME280;66481;51.332;22.804;2023-07-29T20:13:52;98774.81;;;20.56;85.61
77410;BME280;66481;51.332;22.804;2023-07-29T20:17:53;98776.28;;;20.52;85.96
77410;BME280;66481;51.332;22.804;2023-07-29T20:21:56;98779.56;;;20.47;86.26
77410;BME280;66481;51.332;22.804;2023-07-29T20:25:57;98794.59;;;20.35;87.46
77410;BME280;66481;51.332;22.804;2023-07-29T20:29:59;98795.94;;;20.24;88.34
77410;BME280;66481;51.332;22.804;2023-07-29T20:34:00;98793.88;;;20.20;89.27
77410;BME280;66481;51.332;22.804;2023-07-29T20:38:02;98776.09;;;20.19;88.68
77410;BME280;66481;51.332;22.804;2023-07-29T20:42:04;98786.66;;;20.20;88.53
77410;BME280;66481;51.332;22.804;2023-07-29T20:46:06;98774.25;;;20.19;88.61
77410;BME280;66481;51.332;22.804;2023-07-29T20:50:07;98761.41;;;20.15;88.46
77410;BME280;66481;51.332;22.804;2023-07-29T20:54:09;98761.66;;;20.20;88.95
77410;BME280;66481;51.332;22.804;2023-07-29T20:58:10;98759.94;;;20.12;89.22
77410;BME280;66481;51.332;22.804;2023-07-29T21:02:11;98767.31;;;20.03;90.30
77410;BME280;66481;51.332;22.804;2023-07-29T21:06:12;98761.81;;;19.77;91.94